sensor_id;sensor_type;location;lat;lon;timestamp;P1;durP1;ratioP1;P2;durP2;ratioP2
46719;SDS011;32452;51.382;-0.002;2022-07-23T00:02:17;9.77;;;3.10;;
46719;SDS011;32452;51.382;-0.002;2022-07-23T00:05:03;7.15;;;2.88;;
46719;SDS011;32452;51.382;-0.002;2022-07-23T00:07:49;5.90;;;2.42;;
46719;SDS011;32452;51.382;-0.002;2022-07-23T00:10:35;8.57;;;3.17;;
46719;SDS011;32452;51.382;-0.002;2022-07-23T00:13:20;9.20;;;3.22;;
46719;SDS011;32452;51.382;-0.002;2022-07-23T00:16:06;8.60;;;4.00;;
46719;SDS011;32452;51.382;-0.002;2022-07-23T00:18:51;9.32;;;3.20;;
46719;SDS011;32452;51.382;-0.002;2022-07-23T00:21:37;8.68;;;2.72;;
46719;SDS011;32452;51.382;-0.002;2022-07-23T00:24:23;7.40;;;2.58;;
46719;SDS011;32452;51.382;-0.002;2022-07-23T00:27:08;9.00;;;3.13;;
46719;SDS011;32452;51.382;-0.002;2022-07-23T00:29:53;7.97;;;3.58;;
46719;SDS011;32452;51.382;-0.002;2022-07-23T00:32:47;9.95;;;3.30;;
46719;SDS011;32452;51.382;-0.002;2022-07-23T00:35:40;7.35;;;3.30;;
46719;SDS011;32452;51.382;-0.002;2022-07-23T00:38:26;7.82;;;2.92;;
46719;SDS011;32452;51.382;-0.002;2022-07-23T00:41:11;11.43;;;2.80;;
46719;SDS011;32452;51.382;-0.002;2022-07-23T00:44:13;9.63;;;2.83;;
46719;SDS011;32452;51.382;-0.002;2022-07-23T00:47:00;11.43;;;3.83;;
46719;SDS011;32452;51.382;-0.002;2022-07-23T00:49:46;11.13;;;4.18;;
46719;SDS011;32452;51.382;-0.002;2022-07-23T00:52:31;6.35;;;2.55;;
46719;SDS011;32452;51.382;-0.002;2022-07-23T00:55:17;9.15;;;3.28;;
46719;SDS011;32452;51.382;-0.002;2022-07-23T00:58:03;11.05;;;3.55;;
46719;SDS011;32452;51.382;-0.002;2022-07-23T01:00:50;5.07;;;2.60;;
46719;SDS011;32452;51.382;-0.002;2022-07-23T01:03:36;10.95;;;2.60;;
46719;SDS011;32452;51.382;-0.002;2022-07-23T01:06:21;9.82;;;3.03;;
46719;SDS011;32452;51.382;-0.002;2022-07-23T01:09:07;9.95;;;3.10;;
46719;SDS011;32452;51.382;-0.002;2022-07-23T01:11:53;6.25;;;2.58;;
46719;SDS011;32452;51.382;-0.002;2022-07-23T01:14:40;8.80;;;3.65;;
46719;SDS011;32452;51.382;-0.002;2022-07-23T01:17:26;6.85;;;3.28;;
46719;SDS011;32452;51.382;-0.002;2022-07-23T01:20:12;5.85;;;2.55;;
46719;SDS011;32452;51.382;-0.002;2022-07-23T01:22:58;14.18;;;3.83;;
46719;SDS011;32452;51.382;-0.002;2022-07-23T01:25:48;10.27;;;3.28;;
46719;SDS011;32452;51.382;-0.002;2022-07-23T01:28:34;10.23;;;3.05;;
46719;SDS011;32452;51.382;-0.002;2022-07-23T01:31:20;6.93;;;2.78;;
46719;SDS011;32452;51.382;-0.002;2022-07-23T01:34:05;9.40;;;3.55;;
46719;SDS011;32452;51.382;-0.002;2022-07-23T01:36:52;8.80;;;2.95;;
46719;SDS011;32452;51.382;-0.002;2022-07-23T01:39:37;11.07;;;4.78;;
46719;SDS011;32452;51.382;-0.002;2022-07-23T01:42:23;7.20;;;3.13;;
46719;SDS011;32452;51.382;-0.002;2022-07-23T01:45:10;7.43;;;3.25;;
46719;SDS011;32452;51.382;-0.002;2022-07-23T01:47:55;7.80;;;3.13;;
46719;SDS011;32452;51.382;-0.002;2022-07-23T01:50:41;10.00;;;3.22;;
46719;SDS011;32452;51.382;-0.002;2022-07-23T01:53:26;9.00;;;3.20;;
46719;SDS011;32452;51.382;-0.002;2022-07-23T01:56:12;6.90;;;2.92;;
46719;SDS011;32452;51.382;-0.002;2022-07-23T01:59:00;9.00;;;3.15;;
46719;SDS011;32452;51.382;-0.002;2022-07-23T02:01:46;6.35;;;3.20;;
46719;SDS011;32452;51.382;-0.002;2022-07-23T02:04:32;8.20;;;2.90;;
46719;SDS011;32452;51.382;-0.002;2022-07-23T02:07:21;8.70;;;2.80;;
46719;SDS011;32452;51.382;-0.002;2022-07-23T02:10:07;6.75;;;2.65;;
46719;SDS011;32452;51.382;-0.002;2022-07-23T02:12:53;8.30;;;2.83;;
46719;SDS011;32452;51.382;-0.002;2022-07-23T02:15:39;8.02;;;2.58;;
46719;SDS011;32452;51.382;-0.002;2022-07-23T02:18:24;6.93;;;2.70;;
46719;SDS011;32452;51.382;-0.002;2022-07-23T02:21:10;7.50;;;3.03;;
46719;SDS011;32452;51.382;-0.002;2022-07-23T02:23:55;7.50;;;3.05;;
46719;SDS011;32452;51.382;-0.002;2022-07-23T02:26:41;7.25;;;2.88;;
46719;SDS011;32452;51.382;-0.002;2022-07-23T02:29:26;6.68;;;2.92;;
46719;SDS011;32452;51.382;-0.002;2022-07-23T02:32:12;7.80;;;2.83;;
46719;SDS011;32452;51.382;-0.002;2022-07-23T02:34:58;8.38;;;2.72;;
46719;SDS011;32452;51.382;-0.002;2022-07-23T02:37:43;9.57;;;3.50;;
46719;SDS011;32452;51.382;-0.002;2022-07-23T02:40:29;6.13;;;3.00;;
46719;SDS011;32452;51.382;-0.002;2022-07-23T02:43:14;10.20;;;2.88;;
46719;SDS011;32452;51.382;-0.002;2022-07-23T02:46:00;6.60;;;2.70;;
46719;SDS011;32452;51.382;-0.002;2022-07-23T02:48:45;7.75;;;3.25;;
46719;SDS011;32452;51.382;-0.002;2022-07-23T02:51:31;8.60;;;3.13;;
46719;SDS011;32452;51.382;-0.002;2022-07-23T02:54:16;7.43;;;3.05;;
46719;SDS011;32452;51.382;-0.002;2022-07-23T02:57:02;7.30;;;3.40;;
46719;SDS011;32452;51.382;-0.002;2022-07-23T02:59:48;7.15;;;3.35;;
46719;SDS011;32452;51.382;-0.002;2022-07-23T03:02:34;7.43;;;2.80;;
46719;SDS011;32452;51.382;-0.002;2022-07-23T03:05:19;11.07;;;3.05;;
46719;SDS011;32452;51.382;-0.002;2022-07-23T03:08:05;8.07;;;2.72;;
46719;SDS011;32452;51.382;-0.002;2022-07-23T03:10:50;5.55;;;2.88;;
46719;SDS011;32452;51.382;-0.002;2022-07-23T03:13:39;6.80;;;3.00;;
46719;SDS011;32452;51.382;-0.002;2022-07-23T03:16:25;9.70;;;3.35;;
46719;SDS011;32452;51.382;-0.002;2022-07-23T03:19:11;5.70;;;2.55;;
46719;SDS011;32452;51.382;-0.002;2022-07-23T03:21:56;8.88;;;3.22;;
46719;SDS011;32452;51.382;-0.002;2022-07-23T03:24:42;9.82;;;3.00;;
46719;SDS011;32452;51.382;-0.002;2022-07-23T03:27:40;8.80;;;3.55;;
46719;SDS011;32452;51.382;-0.002;2022-07-23T03:30:26;9.75;;;3.00;;
46719;SDS011;32452;51.382;-0.002;2022-07-23T03:33:12;9.45;;;3.10;;
46719;SDS011;32452;51.382;-0.002;2022-07-23T03:35:59;11.52;;;3.97;;
46719;SDS011;32452;51.382;-0.002;2022-07-23T03:38:45;5.53;;;2.92;;
46719;SDS011;32452;51.382;-0.002;2022-07-23T03:41:30;9.05;;;2.80;;
46719;SDS011;32452;51.382;-0.002;2022-07-23T03:44:16;10.60;;;3.13;;
46719;SDS011;32452;51.382;-0.002;2022-07-23T03:47:02;7.13;;;3.00;;
46719;SDS011;32452;51.382;-0.002;2022-07-23T03:49:50;9.95;;;3.28;;
46719;SDS011;32452;51.382;-0.002;2022-07-23T03:52:36;7.82;;;3.40;;
46719;SDS011;32452;51.382;-0.002;2022-07-23T03:55:21;10.35;;;3.58;;
46719;SDS011;32452;51.382;-0.002;2022-07-23T03:58:07;5.13;;;3.03;;
46719;SDS011;32452;51.382;-0.002;2022-07-23T04:00:52;11.23;;;4.18;;
46719;SDS011;32452;51.382;-0.002;2022-07-23T04:03:37;10.93;;;4.13;;
46719;SDS011;32452;51.382;-0.002;2022-07-23T04:06:23;8.90;;;3.83;;
46719;SDS011;32452;51.382;-0.002;2022-07-23T04:09:08;13.70;;;3.80;;
46719;SDS011;32452;51.382;-0.002;2022-07-23T04:11:54;10.40;;;3.53;;
46719;SDS011;32452;51.382;-0.002;2022-07-23T04:14:39;8.00;;;3.75;;
46719;SDS011;32452;51.382;-0.002;2022-07-23T04:17:25;8.63;;;3.63;;
46719;SDS011;32452;51.382;-0.002;2022-07-23T04:20:11;7.63;;;3.90;;
46719;SDS011;32452;51.382;-0.002;2022-07-23T04:22:57;10.52;;;3.80;;
46719;SDS011;32452;51.382;-0.002;2022-07-23T04:25:42;8.88;;;3.40;;
46719;SDS011;32452;51.382;-0.002;2022-07-23T04:28:28;12.95;;;3.47;;
46719;SDS011;32452;51.382;-0.002;2022-07-23T04:31:13;10.32;;;3.60;;
46719;SDS011;32452;51.382;-0.002;2022-07-23T04:33:59;12.38;;;4.30;;
46719;SDS011;32452;51.382;-0.002;2022-07-23T04:36:44;7.70;;;3.70;;
46719;SDS011;32452;51.382;-0.002;2022-07-23T04:39:30;11.70;;;3.80;;
46719;SDS011;32452;51.382;-0.002;2022-07-23T04:42:15;9.70;;;4.13;;
46719;SDS011;32452;51.382;-0.002;2022-07-23T04:45:00;9.20;;;3.55;;
46719;SDS011;32452;51.382;-0.002;2022-07-23T04:47:46;8.48;;;4.13;;
46719;SDS011;32452;51.382;-0.002;2022-07-23T04:50:32;9.90;;;4.82;;
46719;SDS011;32452;51.382;-0.002;2022-07-23T04:53:18;12.15;;;3.95;;
46719;SDS011;32452;51.382;-0.002;2022-07-23T04:56:04;16.85;;;4.22;;
46719;SDS011;32452;51.382;-0.002;2022-07-23T04:58:50;13.30;;;4.90;;
46719;SDS011;32452;51.382;-0.002;2022-07-23T05:01:36;9.13;;;3.90;;
46719;SDS011;32452;51.382;-0.002;2022-07-23T05:04:21;10.60;;;5.10;;
46719;SDS011;32452;51.382;-0.002;2022-07-23T05:07:07;9.52;;;4.85;;
46719;SDS011;32452;51.382;-0.002;2022-07-23T05:09:53;11.43;;;4.70;;
46719;SDS011;32452;51.382;-0.002;2022-07-23T05:12:38;15.25;;;5.20;;
46719;SDS011;32452;51.382;-0.002;2022-07-23T05:15:24;11.73;;;4.78;;
46719;SDS011;32452;51.382;-0.002;2022-07-23T05:18:09;8.93;;;4.35;;
46719;SDS011;32452;51.382;-0.002;2022-07-23T05:20:56;12.30;;;4.30;;
46719;SDS011;32452;51.382;-0.002;2022-07-23T05:23:41;11.10;;;4.30;;
46719;SDS011;32452;51.382;-0.002;2022-07-23T05:26:26;8.18;;;4.13;;
46719;SDS011;32452;51.382;-0.002;2022-07-23T05:29:12;11.95;;;3.85;;
46719;SDS011;32452;51.382;-0.002;2022-07-23T05:31:58;11.65;;;4.25;;
46719;SDS011;32452;51.382;-0.002;2022-07-23T05:34:43;7.90;;;3.83;;
46719;SDS011;32452;51.382;-0.002;2022-07-23T05:37:30;9.75;;;3.65;;
46719;SDS011;32452;51.382;-0.002;2022-07-23T05:40:15;9.30;;;4.30;;
46719;SDS011;32452;51.382;-0.002;2022-07-23T05:43:01;10.00;;;4.57;;
46719;SDS011;32452;51.382;-0.002;2022-07-23T05:45:47;12.05;;;4.13;;
46719;SDS011;32452;51.382;-0.002;2022-07-23T05:48:32;13.70;;;4.35;;
46719;SDS011;32452;51.382;-0.002;2022-07-23T05:51:21;8.05;;;3.65;;
46719;SDS011;32452;51.382;-0.002;2022-07-23T05:54:10;11.20;;;4.20;;
46719;SDS011;32452;51.382;-0.002;2022-07-23T05:56:55;7.38;;;3.38;;
46719;SDS011;32452;51.382;-0.002;2022-07-23T05:59:40;9.77;;;3.40;;
46719;SDS011;32452;51.382;-0.002;2022-07-23T06:02:26;14.73;;;4.50;;
46719;SDS011;32452;51.382;-0.002;2022-07-23T06:05:11;14.02;;;4.05;;
46719;SDS011;32452;51.382;-0.002;2022-07-23T06:07:57;7.55;;;3.33;;
46719;SDS011;32452;51.382;-0.002;2022-07-23T06:10:42;11.98;;;3.72;;
46719;SDS011;32452;51.382;-0.002;2022-07-23T06:13:28;8.30;;;3.22;;
46719;SDS011;32452;51.382;-0.002;2022-07-23T06:16:13;13.07;;;4.45;;
46719;SDS011;32452;51.382;-0.002;2022-07-23T06:18:59;12.32;;;4.00;;
46719;SDS011;32452;51.382;-0.002;2022-07-23T06:21:45;8.15;;;3.72;;
46719;SDS011;32452;51.382;-0.002;2022-07-23T06:24:31;8.02;;;3.03;;
46719;SDS011;32452;51.382;-0.002;2022-07-23T06:27:18;9.05;;;3.88;;
46719;SDS011;32452;51.382;-0.002;2022-07-23T06:30:10;8.93;;;3.15;;
46719;SDS011;32452;51.382;-0.002;2022-07-23T06:32:56;7.68;;;3.35;;
46719;SDS011;32452;51.382;-0.002;2022-07-23T06:35:41;7.93;;;3.55;;
46719;SDS011;32452;51.382;-0.002;2022-07-23T06:38:27;9.20;;;3.72;;
46719;SDS011;32452;51.382;-0.002;2022-07-23T06:41:13;7.38;;;2.92;;
46719;SDS011;32452;51.382;-0.002;2022-07-23T06:43:58;9.13;;;3.40;;
46719;SDS011;32452;51.382;-0.002;2022-07-23T06:46:44;8.95;;;3.78;;
46719;SDS011;32452;51.382;-0.002;2022-07-23T06:49:30;7.50;;;3.42;;
46719;SDS011;32452;51.382;-0.002;2022-07-23T06:52:15;12.15;;;3.40;;
46719;SDS011;32452;51.382;-0.002;2022-07-23T06:55:01;9.65;;;3.60;;
46719;SDS011;32452;51.382;-0.002;2022-07-23T06:57:46;6.15;;;3.03;;
46719;SDS011;32452;51.382;-0.002;2022-07-23T07:00:32;11.77;;;3.17;;
46719;SDS011;32452;51.382;-0.002;2022-07-23T07:03:18;6.75;;;2.92;;
46719;SDS011;32452;51.382;-0.002;2022-07-23T07:06:03;9.82;;;3.00;;
46719;SDS011;32452;51.382;-0.002;2022-07-23T07:08:49;5.43;;;3.20;;
46719;SDS011;32452;51.382;-0.002;2022-07-23T07:11:35;4.93;;;2.58;;
46719;SDS011;32452;51.382;-0.002;2022-07-23T07:14:20;7.78;;;2.97;;
46719;SDS011;32452;51.382;-0.002;2022-07-23T07:17:06;6.43;;;3.13;;
46719;SDS011;32452;51.382;-0.002;2022-07-23T07:19:51;9.65;;;3.35;;
46719;SDS011;32452;51.382;-0.002;2022-07-23T07:22:37;12.20;;;3.97;;
46719;SDS011;32452;51.382;-0.002;2022-07-23T07:25:22;10.98;;;4.05;;
46719;SDS011;32452;51.382;-0.002;2022-07-23T07:28:08;7.30;;;3.85;;
46719;SDS011;32452;51.382;-0.002;2022-07-23T07:30:54;8.55;;;3.70;;
46719;SDS011;32452;51.382;-0.002;2022-07-23T07:33:39;9.68;;;3.40;;
46719;SDS011;32452;51.382;-0.002;2022-07-23T07:36:25;8.15;;;3.90;;
46719;SDS011;32452;51.382;-0.002;2022-07-23T07:39:10;9.45;;;3.20;;
46719;SDS011;32452;51.382;-0.002;2022-07-23T07:41:56;9.52;;;3.17;;
46719;SDS011;32452;51.382;-0.002;2022-07-23T07:44:41;8.15;;;3.25;;
46719;SDS011;32452;51.382;-0.002;2022-07-23T07:47:27;7.55;;;2.90;;
46719;SDS011;32452;51.382;-0.002;2022-07-23T07:50:14;8.93;;;3.30;;
46719;SDS011;32452;51.382;-0.002;2022-07-23T07:53:00;6.13;;;2.67;;
46719;SDS011;32452;51.382;-0.002;2022-07-23T07:55:46;7.13;;;3.08;;
46719;SDS011;32452;51.382;-0.002;2022-07-23T07:58:35;7.60;;;3.05;;
46719;SDS011;32452;51.382;-0.002;2022-07-23T08:01:21;8.68;;;3.20;;
46719;SDS011;32452;51.382;-0.002;2022-07-23T08:04:07;8.57;;;3.33;;
46719;SDS011;32452;51.382;-0.002;2022-07-23T08:06:52;5.97;;;3.10;;
46719;SDS011;32452;51.382;-0.002;2022-07-23T08:09:38;7.18;;;3.08;;
46719;SDS011;32452;51.382;-0.002;2022-07-23T08:12:23;7.57;;;2.55;;
46719;SDS011;32452;51.382;-0.002;2022-07-23T08:15:09;9.23;;;3.55;;
46719;SDS011;32452;51.382;-0.002;2022-07-23T08:17:58;8.68;;;3.08;;
46719;SDS011;32452;51.382;-0.002;2022-07-23T08:20:44;8.20;;;3.22;;
46719;SDS011;32452;51.382;-0.002;2022-07-23T08:23:30;8.15;;;2.70;;
46719;SDS011;32452;51.382;-0.002;2022-07-23T08:26:16;8.48;;;3.20;;
46719;SDS011;32452;51.382;-0.002;2022-07-23T08:29:01;8.27;;;3.45;;
46719;SDS011;32452;51.382;-0.002;2022-07-23T08:31:47;5.38;;;2.78;;
46719;SDS011;32452;51.382;-0.002;2022-07-23T08:34:33;6.95;;;3.00;;
46719;SDS011;32452;51.382;-0.002;2022-07-23T08:37:18;6.22;;;2.80;;
46719;SDS011;32452;51.382;-0.002;2022-07-23T08:40:04;6.75;;;2.63;;
46719;SDS011;32452;51.382;-0.002;2022-07-23T08:42:50;7.43;;;2.47;;
46719;SDS011;32452;51.382;-0.002;2022-07-23T08:45:40;9.55;;;2.70;;
46719;SDS011;32452;51.382;-0.002;2022-07-23T08:48:31;7.93;;;2.90;;
46719;SDS011;32452;51.382;-0.002;2022-07-23T08:51:18;13.35;;;3.20;;
46719;SDS011;32452;51.382;-0.002;2022-07-23T08:54:04;4.53;;;2.45;;
46719;SDS011;32452;51.382;-0.002;2022-07-23T08:56:50;5.72;;;2.58;;
46719;SDS011;32452;51.382;-0.002;2022-07-23T08:59:36;7.00;;;1.88;;
46719;SDS011;32452;51.382;-0.002;2022-07-23T09:02:21;5.10;;;2.22;;
46719;SDS011;32452;51.382;-0.002;2022-07-23T09:05:07;6.22;;;2.10;;
46719;SDS011;32452;51.382;-0.002;2022-07-23T09:10:59;7.25;;;2.42;;
46719;SDS011;32452;51.382;-0.002;2022-07-23T09:13:47;10.35;;;2.53;;
46719;SDS011;32452;51.382;-0.002;2022-07-23T09:16:32;5.75;;;2.40;;
46719;SDS011;32452;51.382;-0.002;2022-07-23T09:19:18;6.88;;;2.35;;
46719;SDS011;32452;51.382;-0.002;2022-07-23T09:22:23;5.80;;;2.63;;
46719;SDS011;32452;51.382;-0.002;2022-07-23T09:25:13;5.75;;;2.47;;
46719;SDS011;32452;51.382;-0.002;2022-07-23T09:28:03;6.45;;;1.98;;
46719;SDS011;32452;51.382;-0.002;2022-07-23T09:30:53;5.90;;;1.88;;
46719;SDS011;32452;51.382;-0.002;2022-07-23T09:33:39;4.88;;;2.05;;
46719;SDS011;32452;51.382;-0.002;2022-07-23T09:36:28;7.40;;;2.80;;
46719;SDS011;32452;51.382;-0.002;2022-07-23T09:39:16;6.10;;;2.10;;
46719;SDS011;32452;51.382;-0.002;2022-07-23T09:42:13;6.13;;;2.00;;
46719;SDS011;32452;51.382;-0.002;2022-07-23T09:45:01;5.25;;;1.80;;
46719;SDS011;32452;51.382;-0.002;2022-07-23T09:47:48;4.78;;;1.80;;
46719;SDS011;32452;51.382;-0.002;2022-07-23T09:50:34;6.93;;;2.22;;
46719;SDS011;32452;51.382;-0.002;2022-07-23T09:53:25;4.93;;;2.33;;
46719;SDS011;32452;51.382;-0.002;2022-07-23T09:56:11;7.43;;;2.03;;
46719;SDS011;32452;51.382;-0.002;2022-07-23T09:59:00;6.75;;;1.92;;
46719;SDS011;32452;51.382;-0.002;2022-07-23T10:01:51;4.00;;;2.20;;
46719;SDS011;32452;51.382;-0.002;2022-07-23T10:04:39;6.32;;;2.00;;
46719;SDS011;32452;51.382;-0.002;2022-07-23T10:07:25;4.25;;;1.95;;
46719;SDS011;32452;51.382;-0.002;2022-07-23T10:10:11;4.50;;;2.03;;
46719;SDS011;32452;51.382;-0.002;2022-07-23T10:12:59;4.45;;;1.95;;
46719;SDS011;32452;51.382;-0.002;2022-07-23T10:16:06;3.40;;;1.83;;
46719;SDS011;32452;51.382;-0.002;2022-07-23T10:18:53;4.40;;;1.98;;
46719;SDS011;32452;51.382;-0.002;2022-07-23T10:21:40;5.10;;;2.42;;
46719;SDS011;32452;51.382;-0.002;2022-07-23T10:38:03;4.95;;;1.50;;
46719;SDS011;32452;51.382;-0.002;2022-07-23T10:40:56;3.17;;;1.55;;
46719;SDS011;32452;51.382;-0.002;2022-07-23T10:43:45;4.25;;;1.70;;
46719;SDS011;32452;51.382;-0.002;2022-07-23T10:47:03;4.38;;;1.77;;
46719;SDS011;32452;51.382;-0.002;2022-07-23T10:50:22;3.38;;;1.63;;
46719;SDS011;32452;51.382;-0.002;2022-07-23T10:53:16;3.85;;;2.05;;
46719;SDS011;32452;51.382;-0.002;2022-07-23T10:56:02;5.07;;;1.80;;
46719;SDS011;32452;51.382;-0.002;2022-07-23T10:58:48;4.75;;;1.83;;
46719;SDS011;32452;51.382;-0.002;2022-07-23T11:01:35;4.75;;;1.70;;
46719;SDS011;32452;51.382;-0.002;2022-07-23T11:04:39;3.35;;;1.48;;
46719;SDS011;32452;51.382;-0.002;2022-07-23T11:07:34;8.27;;;1.88;;
46719;SDS011;32452;51.382;-0.002;2022-07-23T11:16:21;2.50;;;1.40;;
46719;SDS011;32452;51.382;-0.002;2022-07-23T11:19:08;4.03;;;1.70;;
46719;SDS011;32452;51.382;-0.002;2022-07-23T11:21:53;4.72;;;1.40;;
46719;SDS011;32452;51.382;-0.002;2022-07-23T11:24:50;3.60;;;1.45;;
46719;SDS011;32452;51.382;-0.002;2022-07-23T11:27:36;2.10;;;1.08;;
46719;SDS011;32452;51.382;-0.002;2022-07-23T11:33:20;4.65;;;1.70;;
46719;SDS011;32452;51.382;-0.002;2022-07-23T11:36:06;4.97;;;1.63;;
46719;SDS011;32452;51.382;-0.002;2022-07-23T11:38:52;4.20;;;1.25;;
46719;SDS011;32452;51.382;-0.002;2022-07-23T11:41:43;3.40;;;1.65;;
46719;SDS011;32452;51.382;-0.002;2022-07-23T11:44:30;5.10;;;1.63;;
46719;SDS011;32452;51.382;-0.002;2022-07-23T11:47:21;6.32;;;1.30;;
46719;SDS011;32452;51.382;-0.002;2022-07-23T11:50:08;3.63;;;1.40;;
46719;SDS011;32452;51.382;-0.002;2022-07-23T11:52:54;4.40;;;1.65;;
46719;SDS011;32452;51.382;-0.002;2022-07-23T11:55:40;3.42;;;1.30;;
46719;SDS011;32452;51.382;-0.002;2022-07-23T11:58:25;3.33;;;1.98;;
46719;SDS011;32452;51.382;-0.002;2022-07-23T12:01:11;5.90;;;2.10;;
46719;SDS011;32452;51.382;-0.002;2022-07-23T12:03:57;4.13;;;1.48;;
46719;SDS011;32452;51.382;-0.002;2022-07-23T12:06:43;2.72;;;1.35;;
46719;SDS011;32452;51.382;-0.002;2022-07-23T12:09:28;2.65;;;1.50;;
46719;SDS011;32452;51.382;-0.002;2022-07-23T12:12:14;2.75;;;1.30;;
46719;SDS011;32452;51.382;-0.002;2022-07-23T12:15:00;2.38;;;1.45;;
46719;SDS011;32452;51.382;-0.002;2022-07-23T12:17:46;4.03;;;1.52;;
46719;SDS011;32452;51.382;-0.002;2022-07-23T12:20:36;2.53;;;1.40;;
46719;SDS011;32452;51.382;-0.002;2022-07-23T12:23:23;2.75;;;1.20;;
46719;SDS011;32452;51.382;-0.002;2022-07-23T12:26:10;4.35;;;1.50;;
46719;SDS011;32452;51.382;-0.002;2022-07-23T12:28:57;2.70;;;1.70;;
46719;SDS011;32452;51.382;-0.002;2022-07-23T12:31:42;3.65;;;1.30;;
46719;SDS011;32452;51.382;-0.002;2022-07-23T12:34:27;3.90;;;1.40;;
46719;SDS011;32452;51.382;-0.002;2022-07-23T12:37:26;3.25;;;1.65;;
46719;SDS011;32452;51.382;-0.002;2022-07-23T12:43:24;2.13;;;1.40;;
46719;SDS011;32452;51.382;-0.002;2022-07-23T12:46:21;4.43;;;1.80;;
46719;SDS011;32452;51.382;-0.002;2022-07-23T12:49:07;4.97;;;1.85;;
46719;SDS011;32452;51.382;-0.002;2022-07-23T12:51:55;3.92;;;1.50;;
46719;SDS011;32452;51.382;-0.002;2022-07-23T12:54:41;6.57;;;1.55;;
46719;SDS011;32452;51.382;-0.002;2022-07-23T12:57:45;4.22;;;1.70;;
46719;SDS011;32452;51.382;-0.002;2022-07-23T13:00:32;3.95;;;1.58;;
46719;SDS011;32452;51.382;-0.002;2022-07-23T13:03:40;2.65;;;1.30;;
46719;SDS011;32452;51.382;-0.002;2022-07-23T13:06:28;1.57;;;1.33;;
46719;SDS011;32452;51.382;-0.002;2022-07-23T13:09:16;6.90;;;1.60;;
46719;SDS011;32452;51.382;-0.002;2022-07-23T13:12:03;3.15;;;1.60;;
46719;SDS011;32452;51.382;-0.002;2022-07-23T13:14:50;3.40;;;1.42;;
46719;SDS011;32452;51.382;-0.002;2022-07-23T13:17:36;2.10;;;1.25;;
46719;SDS011;32452;51.382;-0.002;2022-07-23T13:20:21;3.10;;;1.20;;
46719;SDS011;32452;51.382;-0.002;2022-07-23T13:23:08;4.07;;;1.40;;
46719;SDS011;32452;51.382;-0.002;2022-07-23T13:25:54;2.58;;;1.60;;
46719;SDS011;32452;51.382;-0.002;2022-07-23T13:28:40;3.08;;;1.35;;
46719;SDS011;32452;51.382;-0.002;2022-07-23T13:31:26;3.28;;;1.45;;
46719;SDS011;32452;51.382;-0.002;2022-07-23T13:34:12;3.63;;;1.42;;
46719;SDS011;32452;51.382;-0.002;2022-07-23T13:36:57;2.88;;;1.40;;
46719;SDS011;32452;51.382;-0.002;2022-07-23T13:39:43;1.85;;;1.33;;
46719;SDS011;32452;51.382;-0.002;2022-07-23T13:42:31;3.95;;;1.63;;
46719;SDS011;32452;51.382;-0.002;2022-07-23T13:45:16;2.35;;;1.52;;
46719;SDS011;32452;51.382;-0.002;2022-07-23T13:48:03;3.65;;;1.30;;
46719;SDS011;32452;51.382;-0.002;2022-07-23T13:50:51;3.30;;;1.67;;
46719;SDS011;32452;51.382;-0.002;2022-07-23T13:53:37;4.95;;;1.55;;
46719;SDS011;32452;51.382;-0.002;2022-07-23T13:56:24;5.22;;;1.50;;
46719;SDS011;32452;51.382;-0.002;2022-07-23T13:59:10;3.75;;;1.42;;
46719;SDS011;32452;51.382;-0.002;2022-07-23T14:01:56;6.43;;;1.60;;
46719;SDS011;32452;51.382;-0.002;2022-07-23T14:05:02;4.45;;;1.92;;
46719;SDS011;32452;51.382;-0.002;2022-07-23T14:07:50;4.22;;;1.60;;
46719;SDS011;32452;51.382;-0.002;2022-07-23T14:10:36;4.72;;;1.48;;
46719;SDS011;32452;51.382;-0.002;2022-07-23T14:13:24;3.85;;;1.75;;
46719;SDS011;32452;51.382;-0.002;2022-07-23T14:16:09;3.58;;;1.55;;
46719;SDS011;32452;51.382;-0.002;2022-07-23T14:18:55;4.47;;;2.10;;
46719;SDS011;32452;51.382;-0.002;2022-07-23T14:21:41;4.40;;;1.35;;
46719;SDS011;32452;51.382;-0.002;2022-07-23T14:24:28;1.92;;;1.70;;
46719;SDS011;32452;51.382;-0.002;2022-07-23T14:27:17;3.15;;;1.63;;
46719;SDS011;32452;51.382;-0.002;2022-07-23T14:30:05;4.40;;;2.10;;
46719;SDS011;32452;51.382;-0.002;2022-07-23T14:32:51;4.93;;;1.88;;
46719;SDS011;32452;51.382;-0.002;2022-07-23T14:35:38;5.43;;;1.80;;
46719;SDS011;32452;51.382;-0.002;2022-07-23T14:38:24;4.30;;;1.77;;
46719;SDS011;32452;51.382;-0.002;2022-07-23T14:41:10;4.00;;;1.50;;
46719;SDS011;32452;51.382;-0.002;2022-07-23T14:43:55;8.13;;;1.70;;
46719;SDS011;32452;51.382;-0.002;2022-07-23T14:46:41;4.65;;;1.70;;
46719;SDS011;32452;51.382;-0.002;2022-07-23T14:49:27;2.75;;;1.38;;
46719;SDS011;32452;51.382;-0.002;2022-07-23T14:52:13;3.28;;;1.58;;
46719;SDS011;32452;51.382;-0.002;2022-07-23T14:55:00;6.43;;;1.73;;
46719;SDS011;32452;51.382;-0.002;2022-07-23T14:57:47;6.25;;;1.70;;
46719;SDS011;32452;51.382;-0.002;2022-07-23T15:00:33;5.40;;;1.50;;
46719;SDS011;32452;51.382;-0.002;2022-07-23T15:03:19;5.82;;;1.95;;
46719;SDS011;32452;51.382;-0.002;2022-07-23T15:06:05;5.22;;;1.67;;
46719;SDS011;32452;51.382;-0.002;2022-07-23T15:08:50;3.05;;;1.50;;
46719;SDS011;32452;51.382;-0.002;2022-07-23T15:11:36;3.28;;;1.33;;
46719;SDS011;32452;51.382;-0.002;2022-07-23T15:14:22;2.42;;;1.40;;
46719;SDS011;32452;51.382;-0.002;2022-07-23T15:17:13;7.90;;;1.98;;
46719;SDS011;32452;51.382;-0.002;2022-07-23T15:19:59;4.50;;;1.60;;
46719;SDS011;32452;51.382;-0.002;2022-07-23T15:22:44;4.88;;;1.58;;
46719;SDS011;32452;51.382;-0.002;2022-07-23T15:25:32;4.53;;;1.50;;
46719;SDS011;32452;51.382;-0.002;2022-07-23T15:28:19;4.57;;;1.83;;
46719;SDS011;32452;51.382;-0.002;2022-07-23T15:31:06;2.90;;;1.60;;
46719;SDS011;32452;51.382;-0.002;2022-07-23T15:33:53;2.55;;;1.40;;
46719;SDS011;32452;51.382;-0.002;2022-07-23T15:36:40;3.80;;;1.85;;
46719;SDS011;32452;51.382;-0.002;2022-07-23T15:39:26;5.38;;;2.05;;
46719;SDS011;32452;51.382;-0.002;2022-07-23T15:42:13;4.15;;;1.90;;
46719;SDS011;32452;51.382;-0.002;2022-07-23T15:45:00;3.30;;;1.50;;
46719;SDS011;32452;51.382;-0.002;2022-07-23T15:47:46;3.10;;;1.70;;
46719;SDS011;32452;51.382;-0.002;2022-07-23T15:50:32;5.70;;;1.90;;
46719;SDS011;32452;51.382;-0.002;2022-07-23T15:53:18;1.70;;;1.60;;
46719;SDS011;32452;51.382;-0.002;2022-07-23T15:56:20;4.18;;;1.95;;
46719;SDS011;32452;51.382;-0.002;2022-07-23T15:59:07;3.40;;;1.60;;
46719;SDS011;32452;51.382;-0.002;2022-07-23T16:01:52;6.25;;;1.42;;
46719;SDS011;32452;51.382;-0.002;2022-07-23T16:04:38;4.75;;;1.48;;
46719;SDS011;32452;51.382;-0.002;2022-07-23T16:07:24;5.55;;;2.10;;
46719;SDS011;32452;51.382;-0.002;2022-07-23T16:10:09;5.53;;;1.77;;
46719;SDS011;32452;51.382;-0.002;2022-07-23T16:12:55;4.03;;;1.90;;
46719;SDS011;32452;51.382;-0.002;2022-07-23T16:15:41;4.28;;;1.70;;
46719;SDS011;32452;51.382;-0.002;2022-07-23T16:18:27;2.72;;;1.58;;
46719;SDS011;32452;51.382;-0.002;2022-07-23T16:21:13;1.83;;;1.52;;
46719;SDS011;32452;51.382;-0.002;2022-07-23T16:23:59;3.88;;;1.95;;
46719;SDS011;32452;51.382;-0.002;2022-07-23T16:26:45;5.32;;;2.25;;
46719;SDS011;32452;51.382;-0.002;2022-07-23T16:29:31;3.85;;;1.80;;
46719;SDS011;32452;51.382;-0.002;2022-07-23T16:32:16;4.13;;;1.88;;
46719;SDS011;32452;51.382;-0.002;2022-07-23T16:35:02;3.72;;;1.83;;
46719;SDS011;32452;51.382;-0.002;2022-07-23T16:37:58;3.63;;;2.00;;
46719;SDS011;32452;51.382;-0.002;2022-07-23T16:40:46;3.00;;;1.60;;
46719;SDS011;32452;51.382;-0.002;2022-07-23T16:43:32;2.35;;;1.73;;
46719;SDS011;32452;51.382;-0.002;2022-07-23T16:46:19;2.92;;;1.98;;
46719;SDS011;32452;51.382;-0.002;2022-07-23T16:49:05;4.13;;;1.60;;
46719;SDS011;32452;51.382;-0.002;2022-07-23T16:51:52;3.00;;;1.67;;
46719;SDS011;32452;51.382;-0.002;2022-07-23T16:54:37;1.58;;;1.45;;
46719;SDS011;32452;51.382;-0.002;2022-07-23T16:57:24;2.03;;;1.27;;
46719;SDS011;32452;51.382;-0.002;2022-07-23T17:00:10;3.22;;;1.38;;